createdAt,value
2019-05-05T00:01:16.142Z,22.52
2019-05-05T00:03:50.960Z,22.48
2019-05-05T00:06:21.542Z,21.20
2019-05-05T00:08:51.830Z,19.23
2019-05-05T00:11:31.030Z,18.50
2019-05-05T00:14:04.745Z,17.98
2019-05-05T00:16:49.228Z,16.32
2019-05-05T00:19:32.197Z,15.03
2019-05-05T00:21:51.873Z,15.53
2019-05-05T00:24:24.370Z,13.28
2019-05-05T00:26:55.340Z,12.23
2019-05-05T00:29:25.608Z,12.47
2019-05-05T00:31:55.899Z,11.10
2019-05-05T00:34:27.660Z,11.78
2019-05-05T00:36:58.214Z,11.60
2019-05-05T00:39:28.857Z,10.85
2019-05-05T00:41:59.159Z,11.25
2019-05-05T00:44:29.381Z,11.22
2019-05-05T00:47:06.876Z,11.38
2019-05-05T00:49:46.463Z,10.13
2019-05-05T00:52:11.244Z,9.95
2019-05-05T00:54:41.828Z,9.73
2019-05-05T00:57:12.459Z,9.18
2019-05-05T00:59:45.086Z,8.60
2019-05-05T01:02:19.839Z,8.75
2019-05-05T01:04:50.217Z,8.65
2019-05-05T01:07:24.675Z,7.90
2019-05-05T01:09:54.922Z,8.10
2019-05-05T01:12:25.657Z,7.72
2019-05-05T01:14:58.990Z,8.08
2019-05-05T01:17:29.655Z,8.37
2019-05-05T01:20:04.064Z,8.18
2019-05-05T01:22:34.075Z,7.80
2019-05-05T01:25:06.843Z,7.58
2019-05-05T01:27:37.139Z,7.62
2019-05-05T01:30:17.069Z,8.08
2019-05-05T01:32:56.062Z,7.53
2019-05-05T01:35:27.019Z,6.95
2019-05-05T01:38:08.384Z,6.78
2019-05-05T01:40:46.536Z,7.10
2019-05-05T01:43:16.815Z,7.00
2019-05-05T01:45:48.620Z,7.25
2019-05-05T01:48:18.916Z,6.30
2019-05-05T01:50:49.500Z,6.47
2019-05-05T01:53:19.798Z,6.72
2019-05-05T01:55:50.812Z,6.12
2019-05-05T01:58:24.243Z,6.75
2019-05-05T02:00:54.646Z,5.87
2019-05-05T02:03:24.883Z,6.47
2019-05-05T02:05:55.653Z,5.97
2019-05-05T02:08:26.230Z,5.72
2019-05-05T02:10:56.888Z,5.12
2019-05-05T02:13:27.518Z,5.78
2019-05-05T02:15:58.163Z,5.40
2019-05-05T02:18:28.522Z,4.92
2019-05-05T02:21:07.627Z,4.92
2019-05-05T02:23:39.021Z,4.72
2019-05-05T02:26:09.606Z,5.28
2019-05-05T02:28:41.532Z,4.90
2019-05-05T02:31:25.710Z,5.03
2019-05-05T02:33:57.017Z,4.67
2019-05-05T02:36:28.425Z,4.28
2019-05-05T02:38:59.059Z,4.55
2019-05-05T02:41:31.537Z,4.67
2019-05-05T02:44:05.112Z,3.90
2019-05-05T02:46:40.791Z,5.00
2019-05-05T02:49:14.919Z,4.95
2019-05-05T02:51:47.381Z,4.62
2019-05-05T02:54:20.808Z,4.22
2019-05-05T02:56:54.181Z,4.97
2019-05-05T02:59:29.510Z,5.00
2019-05-05T03:02:04.342Z,5.42
2019-05-05T03:04:35.151Z,5.05
2019-05-05T03:07:10.468Z,4.58
2019-05-05T03:12:11.287Z,4.30
2019-05-05T03:14:44.971Z,4.70
2019-05-05T03:17:16.095Z,4.60
2019-05-05T03:19:48.555Z,4.92
2019-05-05T03:22:20.002Z,4.50
2019-05-05T03:24:51.063Z,5.15
2019-05-05T03:27:23.706Z,5.17
2019-05-05T03:29:54.989Z,5.03
2019-05-05T03:32:26.653Z,4.65
2019-05-05T03:34:57.570Z,5.30
2019-05-05T03:37:28.258Z,5.37
2019-05-05T03:40:01.492Z,5.80
2019-05-05T03:45:14.572Z,5.30
2019-05-05T03:47:45.807Z,4.60
2019-05-05T03:50:16.493Z,4.58
2019-05-05T03:52:46.966Z,3.85
2019-05-05T03:55:17.173Z,4.42
2019-05-05T03:57:48.038Z,4.37
2019-05-05T04:00:45.007Z,4.37
2019-05-05T04:03:15.642Z,4.00
2019-05-05T04:05:47.956Z,4.03
2019-05-05T04:08:19.074Z,4.20
2019-05-05T04:10:49.872Z,4.10
2019-05-05T04:13:20.892Z,3.85
2019-05-05T04:16:09.975Z,4.22
2019-05-05T04:18:48.250Z,3.92
2019-05-05T04:21:30.406Z,3.40
2019-05-05T04:23:50.453Z,3.33
2019-05-05T04:26:21.048Z,3.85
2019-05-05T04:28:51.330Z,3.52
2019-05-05T04:31:24.153Z,3.40
2019-05-05T04:33:54.424Z,2.72
2019-05-05T04:36:25.601Z,3.27
2019-05-05T04:38:55.886Z,3.00
2019-05-05T04:41:26.439Z,2.90
2019-05-05T04:43:56.727Z,2.90
2019-05-05T04:46:26.924Z,2.77
2019-05-05T04:49:03.569Z,2.65
2019-05-05T04:51:46.631Z,2.85
2019-05-05T04:54:09.613Z,2.67
2019-05-05T04:56:40.274Z,2.65
2019-05-05T04:59:10.549Z,2.50
2019-05-05T05:01:41.603Z,2.87
2019-05-05T05:04:16.470Z,2.58
2019-05-05T05:06:48.736Z,2.67
2019-05-05T05:09:19.022Z,2.72
2019-05-05T05:11:49.598Z,2.45
2019-05-05T05:14:20.258Z,2.70
2019-05-05T05:16:54.098Z,2.70
2019-05-05T05:19:24.348Z,2.55
2019-05-05T05:22:01.146Z,2.92
2019-05-05T05:24:27.199Z,2.62
2019-05-05T05:26:57.924Z,2.90
2019-05-05T05:29:28.194Z,2.12
2019-05-05T05:31:58.425Z,2.55
2019-05-05T05:34:28.981Z,2.30
2019-05-05T05:36:59.265Z,2.72
2019-05-05T05:39:31.135Z,2.77
2019-05-05T05:42:01.683Z,2.37
2019-05-05T05:44:50.120Z,2.77
2019-05-05T05:47:25.095Z,3.30
2019-05-05T05:50:03.969Z,3.05
2019-05-05T05:52:35.040Z,3.30
2019-05-05T05:55:07.285Z,2.30
2019-05-05T05:57:38.758Z,2.80
2019-05-05T06:00:10.518Z,2.85
2019-05-05T06:02:40.851Z,2.30
2019-05-05T06:05:11.712Z,2.22
2019-05-05T06:07:44.310Z,1.98
2019-05-05T06:10:22.157Z,1.82
2019-05-05T06:12:46.654Z,1.50
2019-05-05T06:15:17.619Z,1.50
2019-05-05T06:17:47.836Z,1.32
2019-05-05T06:20:18.062Z,1.67
2019-05-05T06:22:48.267Z,1.75
2019-05-05T06:25:18.473Z,1.62
2019-05-05T06:27:48.748Z,1.90
2019-05-05T06:30:19.162Z,2.35
2019-05-05T06:32:49.889Z,1.40
2019-05-05T06:35:20.540Z,1.25
2019-05-05T06:37:54.426Z,1.00
2019-05-05T06:43:07.813Z,1.10
2019-05-05T06:45:40.075Z,1.17
2019-05-05T06:48:10.358Z,1.00
2019-05-05T06:50:40.551Z,0.90
2019-05-05T06:53:10.773Z,1.32
2019-05-05T06:55:40.998Z,1.15
2019-05-05T06:58:11.211Z,1.50
2019-05-05T07:00:43.950Z,1.20
2019-05-05T07:03:14.035Z,1.12
2019-05-05T07:05:44.933Z,1.10
2019-05-05T07:08:15.619Z,1.12
2019-05-05T07:10:46.280Z,0.95
2019-05-05T07:13:16.892Z,1.45
2019-05-05T07:15:47.190Z,1.00
2019-05-05T07:18:17.456Z,1.42
2019-05-05T07:20:49.032Z,1.30
2019-05-05T07:23:19.350Z,1.20
2019-05-05T07:25:49.999Z,1.30
2019-05-05T07:28:20.753Z,1.22
2019-05-05T07:30:51.093Z,1.30
2019-05-05T07:33:21.251Z,1.25
2019-05-05T07:36:09.355Z,1.65
2019-05-05T07:38:39.570Z,1.20
2019-05-05T07:41:09.800Z,1.05
2019-05-05T07:43:40.013Z,1.07
2019-05-05T07:46:10.386Z,1.35
2019-05-05T07:48:40.598Z,1.30
2019-05-05T07:51:11.169Z,1.30
2019-05-05T07:53:41.435Z,1.22
2019-05-05T07:56:14.284Z,1.40
2019-05-05T07:58:44.604Z,1.20
2019-05-05T08:01:15.245Z,1.30
2019-05-05T08:03:45.568Z,1.45
2019-05-05T08:06:15.815Z,1.50
2019-05-05T08:08:46.490Z,1.50
2019-05-05T08:11:16.745Z,1.50
2019-05-05T08:13:46.953Z,1.30
2019-05-05T08:16:24.860Z,1.17
2019-05-05T08:18:56.503Z,1.20
2019-05-05T08:21:27.408Z,1.10
2019-05-05T08:23:59.314Z,1.60
2019-05-05T08:26:33.563Z,1.65
2019-05-05T08:29:13.578Z,1.52
2019-05-05T08:31:45.155Z,1.32
2019-05-05T08:34:15.366Z,1.55
2019-05-05T08:36:45.583Z,1.50
2019-05-05T08:39:17.292Z,1.70
2019-05-05T08:41:48.052Z,1.10
2019-05-05T08:44:18.711Z,1.20
2019-05-05T08:46:49.440Z,1.30
2019-05-05T08:49:19.733Z,1.60
2019-05-05T08:51:54.695Z,1.47
2019-05-05T08:54:25.512Z,1.30
2019-05-05T08:56:56.174Z,1.70
2019-05-05T08:59:26.808Z,1.40
2019-05-05T09:01:58.003Z,1.22
2019-05-05T09:04:28.391Z,1.52
2019-05-05T09:06:58.625Z,1.50
2019-05-05T09:09:29.519Z,1.50
2019-05-05T09:11:59.869Z,1.65
2019-05-05T09:14:30.515Z,1.50
2019-05-05T09:17:00.859Z,1.80
2019-05-05T09:19:31.079Z,1.87
2019-05-05T09:22:01.447Z,1.67
2019-05-05T09:24:34.149Z,1.77
2019-05-05T09:27:07.540Z,1.70
2019-05-05T09:29:39.515Z,2.15
2019-05-05T09:32:10.149Z,1.40
2019-05-05T09:34:40.525Z,1.27
2019-05-05T09:37:10.796Z,1.40
2019-05-05T09:39:41.010Z,1.20
2019-05-05T09:42:11.275Z,1.60
2019-05-05T09:44:43.650Z,1.50
2019-05-05T09:47:13.871Z,1.70
2019-05-05T09:49:44.758Z,1.87
2019-05-05T09:52:15.532Z,1.92
2019-05-05T09:54:45.840Z,1.95
2019-05-05T09:57:16.548Z,1.72
2019-05-05T09:59:46.858Z,1.57
2019-05-05T10:02:17.525Z,1.40
2019-05-05T10:04:47.844Z,1.50
2019-05-05T10:07:18.116Z,1.40
2019-05-05T10:09:48.327Z,1.40
2019-05-05T10:12:18.654Z,1.65
2019-05-05T10:14:50.318Z,1.60
2019-05-05T10:17:21.111Z,1.30
2019-05-05T10:19:51.503Z,1.40
2019-05-05T10:22:23.770Z,1.52
2019-05-05T10:25:12.019Z,1.37
2019-05-05T10:27:47.518Z,1.50
2019-05-05T10:30:15.690Z,1.45
2019-05-05T10:32:46.524Z,1.40
2019-05-05T10:35:17.538Z,1.30
2019-05-05T10:37:48.154Z,1.32
2019-05-05T10:40:23.488Z,1.65
2019-05-05T10:42:54.185Z,1.70
2019-05-05T10:45:25.287Z,1.55
2019-05-05T10:47:55.779Z,1.70
2019-05-05T10:50:26.515Z,1.30
2019-05-05T10:52:57.175Z,1.60
2019-05-05T10:55:27.679Z,1.70
2019-05-05T10:57:57.951Z,2.37
2019-05-05T11:00:44.268Z,1.50
2019-05-05T11:03:15.477Z,1.80
2019-05-05T11:05:46.918Z,1.60
2019-05-05T11:08:17.568Z,1.80
2019-05-05T11:10:47.782Z,1.95
2019-05-05T11:13:18.188Z,1.50
2019-05-05T11:15:48.462Z,1.60
2019-05-05T11:18:18.747Z,1.57
2019-05-05T11:20:49.242Z,1.70
2019-05-05T11:23:19.481Z,2.00
2019-05-05T11:25:49.716Z,1.60
2019-05-05T11:28:20.225Z,1.70
2019-05-05T11:30:50.443Z,1.80
2019-05-05T11:33:38.607Z,2.60
2019-05-05T11:36:13.623Z,1.80
2019-05-05T11:38:44.652Z,1.92
2019-05-05T11:41:15.629Z,1.70
2019-05-05T11:43:46.279Z,2.10
2019-05-05T11:46:16.603Z,2.00
2019-05-05T11:48:46.901Z,1.60
2019-05-05T11:51:17.549Z,1.70
2019-05-05T11:53:47.773Z,1.60
2019-05-05T11:56:18.099Z,1.57
2019-05-05T11:58:49.755Z,1.70
2019-05-05T12:01:20.056Z,1.67
2019-05-05T12:03:50.353Z,1.90
2019-05-05T12:06:20.584Z,2.35
2019-05-05T12:08:50.807Z,1.80
2019-05-05T12:11:21.113Z,2.08
2019-05-05T12:13:51.905Z,1.87
2019-05-05T12:16:34.495Z,1.82
2019-05-05T12:19:06.322Z,1.92
2019-05-05T12:21:36.637Z,1.70
2019-05-05T12:24:08.864Z,1.70
2019-05-05T12:26:46.878Z,1.42
2019-05-05T12:29:17.819Z,1.60
2019-05-05T12:31:49.215Z,1.67
2019-05-05T12:34:19.514Z,1.40
2019-05-05T12:36:49.731Z,1.80
2019-05-05T12:39:19.969Z,2.10
2019-05-05T12:41:50.580Z,1.47
2019-05-05T12:44:23.632Z,1.70
2019-05-05T12:47:01.289Z,1.72
2019-05-05T12:49:33.821Z,1.62
2019-05-05T12:52:04.762Z,1.75
2019-05-05T12:54:35.455Z,2.00
2019-05-05T12:57:06.104Z,1.60
2019-05-05T12:59:36.393Z,1.60
2019-05-05T13:02:07.149Z,1.90
2019-05-05T13:04:37.729Z,2.17
2019-05-05T13:07:08.478Z,1.80
2019-05-05T13:09:40.277Z,2.10
2019-05-05T13:12:12.105Z,1.72
2019-05-05T13:14:43.870Z,2.00
2019-05-05T13:17:14.559Z,1.62
2019-05-05T13:19:52.790Z,1.50
2019-05-05T13:22:33.681Z,1.60
2019-05-05T13:25:25.317Z,1.85
2019-05-05T13:27:57.384Z,1.60
2019-05-05T13:30:27.972Z,1.50
2019-05-05T13:32:58.808Z,1.77
2019-05-05T13:35:29.136Z,1.85
2019-05-05T13:37:59.793Z,1.80
2019-05-05T13:40:30.087Z,1.60
2019-05-05T13:43:00.301Z,1.55
2019-05-05T13:45:34.309Z,1.80
2019-05-05T13:48:05.811Z,1.57
2019-05-05T13:50:36.389Z,1.70
2019-05-05T13:53:06.913Z,1.50
2019-05-05T13:55:37.151Z,1.52
2019-05-05T13:58:08.854Z,1.37
2019-05-05T14:00:39.658Z,1.60
2019-05-05T14:03:10.391Z,1.85
2019-05-05T14:05:41.057Z,1.72
2019-05-05T14:08:11.653Z,1.90
2019-05-05T14:10:42.222Z,1.50
2019-05-05T14:13:15.108Z,1.37
2019-05-05T14:15:46.233Z,1.60
2019-05-05T14:18:16.705Z,1.80
2019-05-05T14:20:47.073Z,1.40
2019-05-05T14:23:18.011Z,1.75
2019-05-05T14:25:48.380Z,1.70
2019-05-05T14:28:18.614Z,1.67
2019-05-05T14:30:50.548Z,1.57
2019-05-05T14:33:23.667Z,1.95
2019-05-05T14:35:59.408Z,1.77
2019-05-05T14:38:44.441Z,1.55
2019-05-05T14:41:14.880Z,1.50
2019-05-05T14:43:45.458Z,1.42
2019-05-05T14:46:16.127Z,1.57
2019-05-05T14:48:46.786Z,1.75
2019-05-05T14:51:17.132Z,1.50
2019-05-05T14:53:47.388Z,1.75
2019-05-05T14:56:17.620Z,1.57
2019-05-05T14:58:48.402Z,1.60
2019-05-05T15:01:18.775Z,1.57
2019-05-05T15:03:49.024Z,1.65
2019-05-05T15:06:26.837Z,1.50
2019-05-05T15:08:59.060Z,1.40
2019-05-05T15:11:41.388Z,1.35
2019-05-05T15:14:13.796Z,1.35
2019-05-05T15:16:44.159Z,1.32
2019-05-05T15:19:14.807Z,1.30
2019-05-05T15:21:48.765Z,1.47
2019-05-05T15:24:18.735Z,1.70
2019-05-05T15:26:52.251Z,2.90
2019-05-05T15:29:21.025Z,1.65
2019-05-05T15:31:51.233Z,1.57
2019-05-05T15:34:21.478Z,1.70
2019-05-05T15:36:51.689Z,2.00
2019-05-05T15:39:21.932Z,1.55
2019-05-05T15:41:54.324Z,1.62
2019-05-05T15:44:24.706Z,1.80
2019-05-05T15:46:57.670Z,1.40
2019-05-05T15:49:27.278Z,1.50
2019-05-05T15:51:57.570Z,1.82
2019-05-05T15:54:28.123Z,2.12
2019-05-05T15:57:05.539Z,2.42
2019-05-05T15:59:30.355Z,1.80
2019-05-05T16:02:00.741Z,3.50
2019-05-05T16:04:30.956Z,2.60
2019-05-05T16:07:01.227Z,2.40
2019-05-05T16:09:31.524Z,4.12
2019-05-05T16:12:03.769Z,3.00
2019-05-05T16:14:35.991Z,5.30
2019-05-05T16:17:13.644Z,3.33
2019-05-05T16:20:00.922Z,1.60
2019-05-05T16:22:35.882Z,2.30
2019-05-05T16:25:11.211Z,1.95
2019-05-05T16:27:44.648Z,1.80
2019-05-05T16:30:17.981Z,2.00
2019-05-05T16:32:48.634Z,1.45
2019-05-05T16:35:19.242Z,3.12
2019-05-05T16:37:49.461Z,2.40
2019-05-05T16:40:23.133Z,1.85
2019-05-05T16:42:54.352Z,1.85
2019-05-05T16:45:25.338Z,1.65
2019-05-05T16:47:55.918Z,2.05
2019-05-05T16:50:26.685Z,2.00
2019-05-05T16:53:05.825Z,2.87
2019-05-05T16:55:44.878Z,1.87
2019-05-05T16:58:15.552Z,1.60
2019-05-05T17:00:45.758Z,1.70
2019-05-05T17:03:16.051Z,1.52
2019-05-05T17:05:46.812Z,1.55
2019-05-05T17:08:17.353Z,2.40
2019-05-05T17:10:47.687Z,2.17
2019-05-05T17:13:24.162Z,2.25
2019-05-05T17:16:03.963Z,2.30
2019-05-05T17:18:41.652Z,1.92
2019-05-05T17:21:19.631Z,1.65
2019-05-05T17:23:50.219Z,1.95
2019-05-05T17:26:20.522Z,2.15
2019-05-05T17:28:50.745Z,2.12
2019-05-05T17:31:21.013Z,3.72
2019-05-05T17:33:53.447Z,7.92
2019-05-05T17:36:24.748Z,6.03
2019-05-05T17:38:57.164Z,3.30
2019-05-05T17:41:45.611Z,3.12
2019-05-05T17:44:24.935Z,2.08
2019-05-05T17:46:59.372Z,2.00
2019-05-05T17:52:08.642Z,2.33
2019-05-05T17:54:40.492Z,2.20
2019-05-05T17:57:11.736Z,2.37
2019-05-05T17:59:44.100Z,2.72
2019-05-05T18:02:14.762Z,2.58
2019-05-05T18:04:45.963Z,2.40
2019-05-05T18:07:24.094Z,3.12
2019-05-05T18:09:56.351Z,2.40
2019-05-05T18:12:28.283Z,2.58
2019-05-05T18:15:00.617Z,2.58
2019-05-05T18:17:31.443Z,3.00
2019-05-05T18:20:04.310Z,2.85
2019-05-05T18:22:34.439Z,2.85
2019-05-05T18:25:06.245Z,3.02
2019-05-05T18:27:37.001Z,3.20
2019-05-05T18:30:08.268Z,3.42
2019-05-05T18:32:38.939Z,3.12
2019-05-05T18:35:10.019Z,3.00
2019-05-05T18:37:40.793Z,3.55
2019-05-05T18:40:11.713Z,3.02
2019-05-05T18:42:41.994Z,3.80
2019-05-05T18:45:14.724Z,4.15
2019-05-05T18:47:45.127Z,5.08
2019-05-05T18:50:16.031Z,3.95
2019-05-05T18:52:47.283Z,4.50
2019-05-05T18:55:18.350Z,5.10
2019-05-05T18:57:48.659Z,4.17
2019-05-05T19:00:20.717Z,5.05
2019-05-05T19:03:01.083Z,4.45
2019-05-05T19:05:45.759Z,5.47
2019-05-05T19:10:50.711Z,5.10
2019-05-05T19:13:21.552Z,4.95
2019-05-05T19:15:53.781Z,4.65
2019-05-05T19:18:24.476Z,4.50
2019-05-05T19:20:59.496Z,4.92
2019-05-05T19:23:30.348Z,5.05
2019-05-05T19:26:01.056Z,5.25
2019-05-05T19:28:43.798Z,4.60
2019-05-05T19:31:04.292Z,5.08
2019-05-05T19:33:35.163Z,4.47
2019-05-05T19:36:06.230Z,4.78
2019-05-05T19:38:36.598Z,5.20
2019-05-05T19:41:06.822Z,4.53
2019-05-05T19:43:38.709Z,4.08
2019-05-05T19:46:10.923Z,5.00
2019-05-05T19:48:41.549Z,4.20
2019-05-05T19:51:14.203Z,5.12
2019-05-05T19:53:45.066Z,5.00
2019-05-05T19:56:15.956Z,4.90
2019-05-05T19:58:58.396Z,5.30
2019-05-05T20:01:31.586Z,4.67
2019-05-05T20:03:51.069Z,5.37
2019-05-05T20:06:23.609Z,5.10
2019-05-05T20:08:53.781Z,5.25
2019-05-05T20:11:24.707Z,4.95
2019-05-05T20:14:06.628Z,5.75
2019-05-05T20:16:31.657Z,5.47
2019-05-05T20:19:04.190Z,6.37
2019-05-05T20:21:34.694Z,6.37
2019-05-05T20:24:05.041Z,5.55
2019-05-05T20:26:35.670Z,5.85
2019-05-05T20:29:13.920Z,6.25
2019-05-05T20:31:38.284Z,5.72
2019-05-05T20:34:24.304Z,5.62
2019-05-05T20:37:08.706Z,6.42
2019-05-05T20:39:39.244Z,6.47
2019-05-05T20:42:10.358Z,6.33
2019-05-05T20:44:41.105Z,5.90
2019-05-05T20:47:11.863Z,6.03
2019-05-05T20:49:44.376Z,5.97
2019-05-05T20:52:15.054Z,6.40
2019-05-05T20:54:45.864Z,5.47
2019-05-05T20:57:16.626Z,5.97
2019-05-05T20:59:48.370Z,6.17
2019-05-05T21:02:19.020Z,5.80
2019-05-05T21:04:49.630Z,5.70
2019-05-05T21:07:23.507Z,6.70
2019-05-05T21:09:52.465Z,6.42
2019-05-05T21:12:25.811Z,5.37
2019-05-05T21:14:55.172Z,5.87
2019-05-05T21:17:25.497Z,5.33
2019-05-05T21:19:55.751Z,5.72
2019-05-05T21:22:27.724Z,6.22
2019-05-05T21:24:59.147Z,6.20
2019-05-05T21:27:29.848Z,6.28
2019-05-05T21:30:00.239Z,5.83
2019-05-05T21:32:34.030Z,5.80
2019-05-05T21:35:06.083Z,6.25
2019-05-05T21:37:36.383Z,5.37
2019-05-05T21:40:07.101Z,5.30
2019-05-05T21:42:37.323Z,5.08
2019-05-05T21:45:07.755Z,5.30
2019-05-05T21:47:38.053Z,4.83
2019-05-05T21:50:10.341Z,4.60
2019-05-05T21:52:42.707Z,5.33
2019-05-05T21:55:20.622Z,5.00
2019-05-05T21:57:55.290Z,4.37
2019-05-05T22:00:44.991Z,5.08
2019-05-05T22:03:17.752Z,4.60
2019-05-05T22:05:48.027Z,4.37
2019-05-05T22:08:18.350Z,4.62
2019-05-05T22:10:48.585Z,4.58
2019-05-05T22:13:18.823Z,3.87
2019-05-05T22:15:49.043Z,4.70
2019-05-05T22:18:19.486Z,4.03
2019-05-05T22:21:09.295Z,4.95
2019-05-05T22:23:39.527Z,4.65
2019-05-05T22:26:10.928Z,5.28
2019-05-05T22:28:41.216Z,4.62
2019-05-05T22:31:11.382Z,4.95
2019-05-05T22:33:41.958Z,4.40
2019-05-05T22:36:14.080Z,5.00
2019-05-05T22:38:44.702Z,4.85
2019-05-05T22:41:15.921Z,4.55
2019-05-05T22:43:46.745Z,4.85
2019-05-05T22:46:17.072Z,4.97
2019-05-05T22:48:47.343Z,4.50
2019-05-05T22:51:17.684Z,4.72
2019-05-05T22:53:48.090Z,4.83
2019-05-05T22:56:18.923Z,5.10
2019-05-05T22:58:49.636Z,4.95
2019-05-05T23:01:20.172Z,5.05
2019-05-05T23:03:55.237Z,4.72
2019-05-05T23:06:30.520Z,5.87
2019-05-05T23:09:00.853Z,4.60
2019-05-05T23:11:33.107Z,5.80
2019-05-05T23:14:21.564Z,5.55
2019-05-05T23:16:54.128Z,5.28
2019-05-05T23:19:26.385Z,5.72
2019-05-05T23:22:16.516Z,5.62
2019-05-05T23:24:48.408Z,5.25
2019-05-05T23:27:36.378Z,4.95
2019-05-05T23:30:09.810Z,5.30
2019-05-05T23:32:41.222Z,5.30
2019-05-05T23:35:11.491Z,4.90
2019-05-05T23:37:42.253Z,5.35
2019-05-05T23:40:14.407Z,5.47
2019-05-05T23:42:45.012Z,5.75
2019-05-05T23:45:15.646Z,5.35
2019-05-05T23:47:46.025Z,5.17
2019-05-05T23:50:16.766Z,5.30
2019-05-05T23:52:47.490Z,5.70
2019-05-05T23:55:18.156Z,5.87
2019-05-05T23:57:49.915Z,5.75
